Morning Carina — 3ENP9 — position and weather

sailwx.info

Track history (hours):
 
Tides and Currents Weather Stations Pressure Air Temp Water Temp Dewpoint Dewpoint Depression Visibility Wind Speed Wind Dir Waves Ship Positions

Morning Carina

Last reported at 2018-Apr-18 02:18 UTC. Time now 2018-Apr-20 02:55 UTC.
Position S 23°06' W 043°05'.

Length 199 m; draft 8.4 m.

Type: Cargo ship. MMSI: 351392000.

Date/timePositionNaut miles runAvg speedWind from/ knotsBaromVisibWave heightAir tempDewpointWater temp
2018-Apr-18 02:18S 23°06' W 043°05'3 0.3
2018-Apr-17 14:48S 23°06' W 043°02'1 2.4
2018-Apr-17 14:30S 23°06' W 043°03'0 0.4
2018-Apr-17 14:00S 23°06' W 043°03'1 1.8
2018-Apr-17 13:30S 23°07' W 043°03'2 4.8
2018-Apr-17 13:00S 23°09' W 043°02'0 0.3
2018-Apr-17 12:28S 23°09' W 043°02'0 0.3
2018-Apr-17 12:00S 23°09' W 043°02'0 0.3
2018-Apr-17 11:30S 23°09' W 043°02'0 0.4
2018-Apr-17 11:00S 23°09' W 043°02'5 0.5
2018-Apr-17 00:32S 23°04' W 043°04'0 1.6
2018-Apr-17 00:30S 23°05' W 043°04'2 0.2
2018-Apr-16 17:29S 23°03' W 043°04'31 7.4
2018-Apr-16 13:21S 23°06' W 042°31'1 1.3
2018-Apr-16 12:56S 23°06' W 042°30'2 1.0
2018-Apr-16 11:02S 23°08' W 042°30'1 0.8
2018-Apr-16 09:52S 23°09' W 042°29'0 0.9
2018-Apr-16 09:29S 23°09' W 042°29'1 1.0
2018-Apr-16 08:36S 23°10' W 042°29'0 1.1
2018-Apr-16 08:29S 23°10' W 042°29'0 0.9
2018-Apr-16 07:59S 23°10' W 042°29'2 3.4
2018-Apr-16 07:30S 23°11' W 042°27'1015.7
2018-Apr-16 06:54S 23°10' W 042°17'  
Track history (hours):
 
Tides and Currents Weather Stations Pressure Air Temp Water Temp Dewpoint Dewpoint Depression Visibility Wind Speed Wind Dir Waves Ship Positions

Morning Carina

Last reported at 2018-Apr-18 02:18 UTC. Time now 2018-Apr-20 02:55 UTC.
Position S 23°06' W 043°05'.

Length 199 m; draft 8.4 m.

Type: Cargo ship. MMSI: 351392000.

Date/timePositionNaut miles runAvg speedWind from/ knotsBaromVisibWave heightAir tempDewpointWater temp
2018-Apr-18 02:18S 23°06' W 043°05'3 0.3
2018-Apr-17 14:48S 23°06' W 043°02'1 2.4
2018-Apr-17 14:30S 23°06' W 043°03'0 0.4
2018-Apr-17 14:00S 23°06' W 043°03'1 1.8
2018-Apr-17 13:30S 23°07' W 043°03'2 4.8
2018-Apr-17 13:00S 23°09' W 043°02'0 0.3
2018-Apr-17 12:28S 23°09' W 043°02'0 0.3
2018-Apr-17 12:00S 23°09' W 043°02'0 0.3
2018-Apr-17 11:30S 23°09' W 043°02'0 0.4
2018-Apr-17 11:00S 23°09' W 043°02'5 0.5
2018-Apr-17 00:32S 23°04' W 043°04'0 1.6
2018-Apr-17 00:30S 23°05' W 043°04'2 0.2
2018-Apr-16 17:29S 23°03' W 043°04'31 7.4
2018-Apr-16 13:21S 23°06' W 042°31'1 1.3
2018-Apr-16 12:56S 23°06' W 042°30'2 1.0
2018-Apr-16 11:02S 23°08' W 042°30'1 0.8
2018-Apr-16 09:52S 23°09' W 042°29'0 0.9
2018-Apr-16 09:29S 23°09' W 042°29'1 1.0
2018-Apr-16 08:36S 23°10' W 042°29'0 1.1
2018-Apr-16 08:29S 23°10' W 042°29'0 0.9
2018-Apr-16 07:59S 23°10' W 042°29'2 3.4
2018-Apr-16 07:30S 23°11' W 042°27'1015.7
2018-Apr-16 06:54S 23°10' W 042°17'  

Dump ship's entire track history